Time;durP1;ratioP1;P1;durP2;ratioP2;P2;SDS_P1;SDS_P2;PMS_P1;PMS_P2;Temp;Humidity;BMP_temperature;BMP_pressure;BME280_temperature;BME280_humidity;BME280_pressure;Samples;Min_cycle;Max_cycle;Signal;HPM_P1;HPM_P2
2022/08/09 00:02:04;;;;;;;1.05;1.02;;;19.40;58.80;;;;;;5049852;28;20189;-64
2022/08/09 00:04:31;;;;;;;0.95;0.93;;;19.40;59.00;;;;;;5046008;28;20296;-64
2022/08/09 00:06:56;;;;;;;1.40;1.20;;;19.30;59.40;;;;;;5048835;28;20557;-64
2022/08/09 00:09:22;;;;;;;2.17;1.40;;;19.20;59.80;;;;;;5050701;28;20196;-64
2022/08/09 00:11:48;;;;;;;2.28;1.30;;;19.20;59.70;;;;;;5041984;28;20272;-65
2022/08/09 00:14:14;;;;;;;2.13;0.88;;;19.20;59.80;;;;;;5049984;28;20177;-65
2022/08/09 00:16:39;;;;;;;2.10;1.20;;;19.10;59.70;;;;;;5051103;28;20235;-64
2022/08/09 00:19:06;;;;;;;1.80;1.20;;;19.10;59.60;;;;;;5053856;28;20173;-64
2022/08/09 00:21:31;;;;;;;1.25;1.20;;;19.10;59.40;;;;;;5053592;28;20185;-64
2022/08/09 00:23:57;;;;;;;3.15;1.10;;;19.10;58.90;;;;;;5053261;28;20283;-64
2022/08/09 00:26:26;;;;;;;2.05;1.17;;;19.10;58.70;;;;;;5051747;28;20323;-64
2022/08/09 00:28:52;;;;;;;1.52;1.20;;;19.20;58.90;;;;;;5052945;28;20684;-65
2022/08/09 00:31:20;;;;;;;1.20;1.20;;;19.30;58.90;;;;;;5053781;28;20190;-65
2022/08/09 00:33:46;;;;;;;1.55;1.02;;;19.40;58.20;;;;;;5052253;28;20220;-65
2022/08/09 00:36:11;;;;;;;2.15;1.13;;;19.60;57.80;;;;;;5053914;28;20216;-65
2022/08/09 00:38:38;;;;;;;1.30;1.20;;;19.70;56.90;;;;;;5052332;28;20544;-65
2022/08/09 00:41:04;;;;;;;1.13;1.13;;;19.80;57.00;;;;;;5053212;28;20675;-65
2022/08/09 00:43:30;;;;;;;1.73;1.25;;;19.90;56.10;;;;;;5053397;28;20220;-64
2022/08/09 00:45:55;;;;;;;2.05;1.30;;;20.00;56.30;;;;;;5053585;28;20241;-64
2022/08/09 00:48:21;;;;;;;4.57;3.20;;;20.00;55.90;;;;;;5053104;28;20520;-65
2022/08/09 00:50:47;;;;;;;24.02;16.00;;;20.00;55.40;;;;;;5053565;28;20231;-65
2022/08/09 00:53:13;;;;;;;4.95;3.88;;;20.10;55.80;;;;;;5052381;28;20182;-66
2022/08/09 00:55:39;;;;;;;2.58;1.45;;;20.10;55.30;;;;;;5052136;28;20629;-66
2022/08/09 00:58:05;;;;;;;1.35;1.25;;;20.10;54.80;;;;;;5052622;28;20251;-66
2022/08/09 01:00:31;;;;;;;1.30;1.00;;;20.00;54.70;;;;;;5053246;28;20636;-66
2022/08/09 01:03:15;;;;;;;2.45;1.40;;;19.90;54.80;;;;;;5052893;28;20182;-66
2022/08/09 01:06:03;;;;;;;11.52;6.82;;;19.80;54.90;;;;;;5048869;28;20288;-64
2022/08/09 01:08:45;;;;;;;2.38;1.50;;;19.70;55.00;;;;;;5045430;28;20173;-64
2022/08/09 01:11:50;;;;;;;7.57;2.53;;;19.70;55.00;;;;;;5053035;28;20268;-66
2022/08/09 01:14:48;;;;;;;2.47;1.45;;;19.60;55.20;;;;;;5052734;28;20747;-64
2022/08/09 01:17:22;;;;;;;1.58;1.40;;;19.60;55.20;;;;;;5051167;28;20196;-66
2022/08/09 01:19:55;;;;;;;2.80;2.20;;;19.50;55.30;;;;;;5052650;28;20177;-66
2022/08/09 01:22:38;;;;;;;1.90;1.80;;;19.50;56.00;;;;;;5051480;28;20189;-65
2022/08/09 01:25:33;;;;;;;1.88;1.70;;;19.50;55.60;;;;;;5050930;28;20204;-64
2022/08/09 01:28:01;;;;;;;3.63;1.60;;;19.50;55.60;;;;;;5045800;28;20192;-65
2022/08/09 01:30:29;;;;;;;2.90;1.40;;;19.40;55.60;;;;;;5052686;28;20195;-66
2022/08/09 01:32:57;;;;;;;1.75;1.13;;;19.40;55.60;;;;;;5051007;28;20728;-66
2022/08/09 01:35:56;;;;;;;1.35;1.15;;;19.40;55.80;;;;;;5052673;28;20177;-66
2022/08/09 01:38:24;;;;;;;1.42;1.33;;;19.30;55.80;;;;;;5051922;28;20176;-66
2022/08/09 01:40:57;;;;;;;1.88;1.30;;;19.30;55.80;;;;;;5052265;28;20181;-66
2022/08/09 01:43:23;;;;;;;1.50;1.40;;;19.30;55.80;;;;;;5052376;28;20173;-66
2022/08/09 01:45:49;;;;;;;2.63;1.20;;;19.30;55.90;;;;;;5052212;28;20236;-66
2022/08/09 01:48:17;;;;;;;1.83;1.40;;;19.20;55.90;;;;;;5051942;28;20177;-66
2022/08/09 01:50:48;;;;;;;8.95;5.53;;;19.20;56.10;;;;;;5050670;28;20193;-66
2022/08/09 01:53:15;;;;;;;1.95;1.50;;;19.20;56.20;;;;;;5052142;28;20181;-66
2022/08/09 01:55:41;;;;;;;1.40;1.23;;;19.20;56.30;;;;;;5051311;28;20177;-66
2022/08/09 01:58:09;;;;;;;1.25;1.10;;;19.10;56.30;;;;;;5052193;28;20188;-66
2022/08/09 02:00:34;;;;;;;2.45;1.55;;;19.10;56.40;;;;;;5052198;28;20180;-66
2022/08/09 02:03:02;;;;;;;1.60;1.50;;;19.10;56.40;;;;;;5052138;28;20189;-66
2022/08/09 02:05:30;;;;;;;1.67;1.40;;;19.10;56.50;;;;;;5042925;28;20178;-66
2022/08/09 02:08:01;;;;;;;1.33;1.25;;;19.00;56.50;;;;;;5052141;28;20178;-66
2022/08/09 02:10:30;;;;;;;1.90;1.42;;;19.00;56.80;;;;;;5051854;28;20181;-66
2022/08/09 02:12:59;;;;;;;3.33;1.38;;;19.00;56.90;;;;;;5045627;28;20200;-66
2022/08/09 02:15:27;;;;;;;1.73;1.25;;;18.90;56.80;;;;;;5051303;28;20933;-66
2022/08/09 02:17:54;;;;;;;1.90;1.20;;;18.90;56.90;;;;;;5044609;28;20189;-66
2022/08/09 02:20:19;;;;;;;1.63;1.40;;;18.90;57.00;;;;;;5051734;28;20247;-66
2022/08/09 02:22:55;;;;;;;2.50;1.30;;;18.90;57.10;;;;;;5050447;28;20185;-66
2022/08/09 02:25:28;;;;;;;1.75;1.45;;;18.80;57.10;;;;;;5051179;28;20188;-65
2022/08/09 02:28:04;;;;;;;1.58;1.10;;;18.80;57.10;;;;;;5051170;28;20208;-66
2022/08/09 02:30:36;;;;;;;5.13;2.05;;;18.80;57.10;;;;;;5034994;28;20184;-66
2022/08/09 02:33:04;;;;;;;5.22;2.05;;;18.80;57.10;;;;;;5051429;28;20558;-66
2022/08/09 02:35:34;;;;;;;1.38;1.27;;;18.70;57.20;;;;;;5051171;28;20181;-65
2022/08/09 02:38:02;;;;;;;20.23;13.00;;;18.70;57.20;;;;;;5051472;28;20307;-66
2022/08/09 02:40:28;;;;;;;8.35;4.32;;;18.70;57.30;;;;;;5051464;28;20177;-66
2022/08/09 02:42:55;;;;;;;2.45;1.63;;;18.70;57.30;;;;;;5051246;28;20178;-66
2022/08/09 02:45:28;;;;;;;3.10;1.30;;;18.60;57.20;;;;;;5051096;28;20232;-66
2022/08/09 02:47:57;;;;;;;2.75;1.52;;;18.60;57.30;;;;;;5051445;28;20268;-66
2022/08/09 02:50:31;;;;;;;2.40;1.40;;;18.60;57.50;;;;;;5051337;28;20483;-66
2022/08/09 02:53:01;;;;;;;3.10;1.58;;;18.60;57.30;;;;;;5051009;28;20181;-65
2022/08/09 02:55:29;;;;;;;2.20;1.58;;;18.60;57.60;;;;;;5050915;28;20292;-65
2022/08/09 02:57:57;;;;;;;2.05;1.55;;;18.60;57.40;;;;;;5051295;28;20209;-65
2022/08/09 03:00:24;;;;;;;1.55;1.45;;;18.60;57.30;;;;;;5051488;28;20205;-65
2022/08/09 03:02:53;;;;;;;2.38;1.70;;;18.60;57.40;;;;;;5050937;28;20231;-66
2022/08/09 03:05:20;;;;;;;1.60;1.50;;;18.50;57.60;;;;;;5044663;28;20178;-66
2022/08/09 03:07:47;;;;;;;2.17;1.50;;;18.50;57.40;;;;;;5051471;28;20649;-66
2022/08/09 03:10:14;;;;;;;1.48;1.38;;;18.50;57.40;;;;;;5050991;28;20232;-65
2022/08/09 03:12:42;;;;;;;4.20;1.60;;;18.60;57.60;;;;;;5050751;28;20192;-65
2022/08/09 03:15:09;;;;;;;1.50;1.40;;;18.50;57.50;;;;;;5051061;28;20184;-65
2022/08/09 03:17:35;;;;;;;1.90;1.58;;;18.50;57.60;;;;;;5051195;28;20181;-65
2022/08/09 03:20:02;;;;;;;1.50;1.40;;;18.50;57.60;;;;;;5051014;28;20577;-64
2022/08/09 03:22:31;;;;;;;2.15;1.50;;;18.50;57.70;;;;;;5050623;28;20512;-66
2022/08/09 03:24:58;;;;;;;1.40;1.30;;;18.50;57.70;;;;;;5049903;28;20225;-66
2022/08/09 03:27:25;;;;;;;3.28;1.48;;;18.40;57.80;;;;;;5046487;28;20707;-65
2022/08/09 03:29:52;;;;;;;1.95;1.50;;;18.40;57.70;;;;;;5050901;28;20181;-66
2022/08/09 03:32:19;;;;;;;1.30;1.20;;;18.40;57.70;;;;;;5051015;28;20182;-66
2022/08/09 03:34:45;;;;;;;2.30;1.30;;;18.40;57.80;;;;;;5051132;28;20185;-66
2022/08/09 03:37:10;;;;;;;1.75;1.50;;;18.40;57.90;;;;;;5050829;28;20182;-65
2022/08/09 03:39:37;;;;;;;3.33;1.50;;;18.40;58.00;;;;;;5050777;28;20640;-66
2022/08/09 03:42:02;;;;;;;2.58;1.45;;;18.30;58.10;;;;;;5050932;28;20186;-65
2022/08/09 03:44:28;;;;;;;1.58;1.42;;;18.30;58.20;;;;;;5050758;28;20170;-66
2022/08/09 03:46:54;;;;;;;6.07;1.48;;;18.30;58.30;;;;;;5050460;28;20213;-66
2022/08/09 03:49:23;;;;;;;1.40;1.30;;;18.20;58.30;;;;;;5050941;28;20192;-65
2022/08/09 03:51:53;;;;;;;2.58;1.58;;;18.20;58.40;;;;;;5051706;28;20725;-65
2022/08/09 03:54:19;;;;;;;1.83;1.50;;;18.20;58.60;;;;;;5053159;28;20186;-65
2022/08/09 03:56:45;;;;;;;1.15;1.13;;;18.20;58.80;;;;;;5054349;28;20220;-65
2022/08/09 03:59:13;;;;;;;1.70;1.60;;;18.20;59.20;;;;;;5054691;28;20225;-65
2022/08/09 04:01:39;;;;;;;2.15;1.38;;;18.20;59.40;;;;;;5054339;28;20213;-66
2022/08/09 04:04:05;;;;;;;1.50;1.40;;;18.20;59.50;;;;;;5051292;28;20186;-65
2022/08/09 04:06:31;;;;;;;2.25;1.63;;;18.10;59.40;;;;;;5045117;28;20220;-64
2022/08/09 04:08:57;;;;;;;2.97;1.50;;;18.10;59.80;;;;;;5054443;28;20177;-65
2022/08/09 04:11:22;;;;;;;3.45;1.60;;;18.00;60.00;;;;;;5053788;28;20224;-64
2022/08/09 04:13:48;;;;;;;2.95;2.30;;;18.00;60.20;;;;;;5053814;28;20174;-65
2022/08/09 04:16:13;;;;;;;6.68;1.80;;;18.00;60.50;;;;;;5052854;28;20299;-67
2022/08/09 04:18:40;;;;;;;3.65;2.00;;;17.90;60.40;;;;;;5056210;28;20182;-65
2022/08/09 04:21:07;;;;;;;5.53;1.73;;;18.00;60.40;;;;;;5065526;28;20186;-66
2022/08/09 04:23:33;;;;;;;2.08;1.52;;;17.90;60.70;;;;;;5054119;28;20266;-66
2022/08/09 04:25:58;;;;;;;2.13;1.80;;;17.90;61.00;;;;;;5053121;28;20213;-67
2022/08/09 04:28:24;;;;;;;4.18;1.40;;;17.80;61.50;;;;;;5053986;28;20760;-67
2022/08/09 04:30:50;;;;;;;1.73;1.63;;;17.70;61.80;;;;;;5053260;28;20276;-65
2022/08/09 04:33:16;;;;;;;2.53;1.60;;;17.70;62.30;;;;;;5053097;28;20256;-64
2022/08/09 04:35:41;;;;;;;5.43;1.65;;;17.60;62.80;;;;;;5054253;28;20201;-65
2022/08/09 04:38:07;;;;;;;3.83;1.92;;;17.60;62.80;;;;;;5051721;28;20201;-63
2022/08/09 04:40:48;;;;;;;1.70;1.60;;;17.60;62.90;;;;;;5062226;28;20180;-63
2022/08/09 04:43:15;;;;;;;1.60;1.50;;;17.60;62.90;;;;;;5064883;28;20613;-68
2022/08/09 04:45:41;;;;;;;1.70;1.50;;;17.50;63.50;;;;;;5052345;28;20205;-67
2022/08/09 04:48:07;;;;;;;1.50;1.40;;;17.50;64.00;;;;;;5053055;28;20240;-64
2022/08/09 04:50:33;;;;;;;2.03;1.60;;;17.50;64.20;;;;;;5052785;28;20245;-67
2022/08/09 04:52:59;;;;;;;3.00;1.42;;;17.50;63.90;;;;;;5052006;28;20549;-67
2022/08/09 04:55:25;;;;;;;6.65;4.35;;;17.50;63.80;;;;;;5053947;28;20173;-64
2022/08/09 04:57:50;;;;;;;6.78;2.17;;;17.40;64.10;;;;;;5051813;28;20177;-63
2022/08/09 05:00:16;;;;;;;3.00;2.42;;;17.50;64.60;;;;;;5053705;28;20260;-65
2022/08/09 05:02:43;;;;;;;3.53;2.42;;;17.50;64.60;;;;;;5052764;28;20239;-65
2022/08/09 05:05:09;;;;;;;2.22;1.60;;;17.70;64.60;;;;;;5052220;28;20182;-67
2022/08/09 05:07:34;;;;;;;1.90;1.80;;;17.90;64.40;;;;;;5052946;28;20217;-67
2022/08/09 05:10:00;;;;;;;1.63;1.52;;;18.20;64.30;;;;;;5056739;28;20227;-67
2022/08/09 05:12:25;;;;;;;2.80;1.40;;;18.50;63.40;;;;;;5059875;28;20201;-67
2022/08/09 05:14:51;;;;;;;4.63;1.60;;;18.80;62.60;;;;;;5053442;28;20538;-67
2022/08/09 05:17:16;;;;;;;3.38;1.70;;;19.20;61.90;;;;;;5053364;28;20174;-67
2022/08/09 05:19:42;;;;;;;1.48;1.38;;;19.50;61.10;;;;;;5053110;28;20188;-67
2022/08/09 05:22:11;;;;;;;2.33;1.70;;;19.90;60.50;;;;;;5053018;28;20177;-67
2022/08/09 05:24:36;;;;;;;2.65;1.70;;;20.30;59.80;;;;;;5051331;28;20225;-68
2022/08/09 05:27:02;;;;;;;4.32;1.50;;;20.70;58.90;;;;;;5052812;28;20224;-68
2022/08/09 05:29:27;;;;;;;3.20;1.50;;;21.10;57.30;;;;;;5053183;28;20181;-69
2022/08/09 05:31:58;;;;;;;1.42;1.33;;;21.50;56.20;;;;;;5053124;28;20648;-68
2022/08/09 05:34:28;;;;;;;1.48;1.20;;;22.00;55.50;;;;;;5053091;28;20641;-68
2022/08/09 05:36:55;;;;;;;4.40;1.38;;;22.50;54.90;;;;;;5053328;28;20192;-68
2022/08/09 05:39:21;;;;;;;1.83;1.40;;;23.00;53.90;;;;;;5052650;28;20215;-68
2022/08/09 05:41:47;;;;;;;3.55;1.40;;;23.20;53.20;;;;;;5052760;28;20192;-68
2022/08/09 05:44:12;;;;;;;1.67;1.40;;;23.50;52.50;;;;;;5051091;28;20181;-68
2022/08/09 05:46:38;;;;;;;1.35;1.25;;;23.80;51.80;;;;;;5051647;28;20216;-69
2022/08/09 05:49:03;;;;;;;1.88;1.50;;;24.20;50.80;;;;;;5052866;28;20182;-67
2022/08/09 05:51:29;;;;;;;1.55;1.33;;;24.50;50.10;;;;;;5052929;28;20593;-67
2022/08/09 05:53:54;;;;;;;2.08;1.52;;;24.80;49.50;;;;;;5052963;28;20170;-67
2022/08/09 05:56:20;;;;;;;1.60;1.50;;;25.30;49.30;;;;;;5051746;28;20174;-67
2022/08/09 05:58:46;;;;;;;5.20;1.60;;;25.70;48.40;;;;;;5052722;28;20189;-67
2022/08/09 06:01:11;;;;;;;1.25;1.20;;;26.00;47.90;;;;;;5052532;28;20272;-66
2022/08/09 06:03:37;;;;;;;3.42;1.60;;;26.20;47.40;;;;;;5052659;28;20239;-67
2022/08/09 06:06:02;;;;;;;1.95;1.30;;;26.40;47.10;;;;;;5050196;28;20220;-66
2022/08/09 06:08:28;;;;;;;1.58;1.35;;;26.60;46.60;;;;;;5052674;28;20166;-67
2022/08/09 06:10:55;;;;;;;2.42;1.40;;;26.90;46.20;;;;;;5052491;28;20193;-67
2022/08/09 06:13:22;;;;;;;2.63;1.52;;;27.20;45.80;;;;;;5054914;28;20253;-67
2022/08/09 06:15:48;;;;;;;1.48;1.38;;;27.30;45.30;;;;;;5051695;28;20544;-68
2022/08/09 06:18:14;;;;;;;2.55;1.20;;;27.60;45.10;;;;;;5051926;28;20181;-67
2022/08/09 06:20:40;;;;;;;1.77;1.60;;;27.60;44.60;;;;;;5052251;28;20208;-67
2022/08/09 06:23:06;;;;;;;2.45;1.30;;;27.90;44.60;;;;;;5051918;28;20189;-67
2022/08/09 06:25:32;;;;;;;1.77;1.45;;;28.40;44.30;;;;;;5052333;28;20239;-67
2022/08/09 06:27:57;;;;;;;1.70;1.60;;;28.70;43.40;;;;;;5051807;28;20185;-65
2022/08/09 06:30:23;;;;;;;3.47;1.50;;;29.10;44.30;;;;;;5051645;28;20181;-64
2022/08/09 06:32:51;;;;;;;1.52;1.35;;;29.50;43.30;;;;;;5052153;28;20185;-66
2022/08/09 06:35:17;;;;;;;1.73;1.40;;;30.00;42.40;;;;;;5052429;28;20215;-66
2022/08/09 06:37:43;;;;;;;2.33;1.30;;;30.30;41.50;;;;;;5051017;28;20181;-66
2022/08/09 06:40:09;;;;;;;2.08;1.15;;;30.60;41.40;;;;;;5051077;28;20196;-66
2022/08/09 06:42:35;;;;;;;1.95;1.70;;;30.80;40.40;;;;;;5049887;28;20181;-66
2022/08/09 06:45:00;;;;;;;3.58;2.30;;;30.80;40.70;;;;;;5049726;28;20205;-66
2022/08/09 06:47:26;;;;;;;1.98;1.42;;;31.10;40.70;;;;;;5051781;28;20263;-66
2022/08/09 06:49:52;;;;;;;2.00;1.40;;;31.50;40.30;;;;;;5051919;28;20667;-67
2022/08/09 06:52:18;;;;;;;3.35;1.30;;;31.80;39.70;;;;;;5051540;28;20254;-67
2022/08/09 06:54:43;;;;;;;1.40;1.30;;;32.00;39.30;;;;;;5051724;28;20178;-67
2022/08/09 06:57:10;;;;;;;1.60;1.50;;;31.80;39.00;;;;;;5051154;28;20185;-67
2022/08/09 06:59:36;;;;;;;2.35;1.27;;;31.70;39.20;;;;;;5051640;28;20173;-66
2022/08/09 07:02:02;;;;;;;3.35;1.50;;;31.60;39.50;;;;;;5050391;28;20642;-67
2022/08/09 07:04:28;;;;;;;1.83;1.20;;;31.50;39.50;;;;;;5051335;28;20710;-67
2022/08/09 07:06:54;;;;;;;3.65;1.40;;;31.50;39.70;;;;;;5051712;28;20303;-66
2022/08/09 07:09:20;;;;;;;3.42;1.48;;;31.50;39.90;;;;;;5051412;28;21833;-67
2022/08/09 07:11:46;;;;;;;1.70;1.60;;;31.70;39.80;;;;;;5051658;28;20169;-66
2022/08/09 07:14:16;;;;;;;1.13;1.13;;;32.00;39.20;;;;;;5050990;28;20235;-67
2022/08/09 07:16:42;;;;;;;5.13;1.45;;;32.20;39.10;;;;;;5051256;28;20185;-66
2022/08/09 07:19:10;;;;;;;4.90;1.70;;;32.20;39.00;;;;;;5051270;28;20256;-66
2022/08/09 07:21:36;;;;;;;1.10;1.10;;;32.20;39.20;;;;;;5051381;28;20620;-67
2022/08/09 07:24:03;;;;;;;2.05;1.23;;;32.30;39.20;;;;;;5049308;28;20383;-67
2022/08/09 07:26:29;;;;;;;2.97;1.60;;;32.30;38.70;;;;;;5052024;28;20270;-67
2022/08/09 07:28:54;;;;;;;2.90;1.58;;;32.30;39.10;;;;;;5055243;28;20185;-67
2022/08/09 07:31:20;;;;;;;2.15;1.35;;;32.50;38.90;;;;;;5054721;28;20243;-67
2022/08/09 07:33:45;;;;;;;2.22;1.38;;;32.90;38.70;;;;;;5055543;28;20179;-67
2022/08/09 07:36:12;;;;;;;3.10;1.40;;;33.10;38.30;;;;;;5054951;28;20582;-67
2022/08/09 07:38:37;;;;;;;1.52;1.40;;;33.50;38.30;;;;;;5054792;28;20636;-68
2022/08/09 07:41:03;;;;;;;1.50;1.40;;;33.90;37.80;;;;;;5055416;28;20188;-68
2022/08/09 07:43:28;;;;;;;1.83;1.40;;;34.30;37.40;;;;;;5055039;28;20191;-67
2022/08/09 07:45:54;;;;;;;1.77;1.27;;;34.70;37.20;;;;;;5054640;28;20255;-68
2022/08/09 07:48:19;;;;;;;1.40;1.30;;;34.80;36.40;;;;;;5054707;28;20239;-67
2022/08/09 07:50:45;;;;;;;2.17;1.63;;;34.90;36.50;;;;;;5054559;28;20271;-68
2022/08/09 07:53:11;;;;;;;1.52;1.42;;;35.00;36.30;;;;;;5053274;28;20608;-67
2022/08/09 07:55:36;;;;;;;2.35;1.65;;;35.10;36.20;;;;;;5053422;28;20181;-67
2022/08/09 07:58:02;;;;;;;5.45;1.40;;;35.30;36.60;;;;;;5054904;28;20192;-67
2022/08/09 08:00:31;;;;;;;1.58;1.17;;;35.40;36.30;;;;;;5055214;28;20624;-67
2022/08/09 08:02:57;;;;;;;2.40;1.42;;;35.70;36.30;;;;;;5054475;28;20702;-68
2022/08/09 08:05:23;;;;;;;1.50;1.40;;;35.90;35.90;;;;;;5041465;28;20422;-68
2022/08/09 08:07:49;;;;;;;1.92;1.30;;;36.00;35.60;;;;;;5035556;28;20688;-68
2022/08/09 08:10:14;;;;;;;2.63;1.42;;;36.10;36.00;;;;;;5054825;28;20177;-68
2022/08/09 08:12:42;;;;;;;2.05;1.48;;;35.70;35.20;;;;;;5054702;28;20181;-67
2022/08/09 08:15:08;;;;;;;2.92;1.20;;;35.30;36.30;;;;;;5053113;28;20192;-68
2022/08/09 08:17:34;;;;;;;2.85;1.30;;;35.20;36.20;;;;;;5054641;28;20184;-68
2022/08/09 08:20:00;;;;;;;1.83;1.70;;;35.20;36.30;;;;;;5054463;28;20168;-67
2022/08/09 08:22:26;;;;;;;2.33;1.50;;;35.10;36.20;;;;;;5054486;28;20247;-67
2022/08/09 08:24:54;;;;;;;1.48;1.38;;;34.90;36.50;;;;;;5053701;28;20216;-68
2022/08/09 08:27:23;;;;;;;2.15;1.33;;;35.10;36.40;;;;;;5054553;28;20252;-68
2022/08/09 08:29:50;;;;;;;1.67;1.35;;;35.20;36.60;;;;;;5053952;28;20290;-67
2022/08/09 08:32:17;;;;;;;5.95;1.60;;;35.30;36.60;;;;;;5054286;28;20628;-67
2022/08/09 08:34:42;;;;;;;4.85;1.40;;;35.30;36.30;;;;;;5054193;28;20243;-65
2022/08/09 08:37:08;;;;;;;3.60;1.58;;;35.50;37.20;;;;;;5054048;28;20697;-66
2022/08/09 08:39:33;;;;;;;2.88;1.55;;;35.70;36.20;;;;;;5052907;28;20191;-67
2022/08/09 08:42:00;;;;;;;1.38;1.20;;;35.90;36.30;;;;;;5054599;28;20222;-66
2022/08/09 08:44:27;;;;;;;2.28;1.63;;;36.00;36.20;;;;;;5052871;28;20177;-68
2022/08/09 08:46:53;;;;;;;3.70;1.55;;;35.90;35.90;;;;;;5053754;28;20240;-65
2022/08/09 08:49:20;;;;;;;3.10;1.70;;;35.70;36.60;;;;;;5053956;28;20181;-67
2022/08/09 08:51:46;;;;;;;1.73;1.55;;;35.30;36.30;;;;;;5054277;28;20647;-68
2022/08/09 08:54:13;;;;;;;3.60;1.40;;;35.00;37.00;;;;;;5053575;28;20189;-67
2022/08/09 08:56:40;;;;;;;1.20;1.10;;;34.80;37.00;;;;;;5054037;28;20709;-67
2022/08/09 08:59:09;;;;;;;2.38;1.73;;;34.60;37.50;;;;;;5053888;28;20184;-67
2022/08/09 09:01:35;;;;;;;1.48;1.35;;;34.50;37.90;;;;;;5054018;28;20185;-67
2022/08/09 09:04:08;;;;;;;3.97;1.30;;;34.50;38.30;;;;;;5053357;28;20188;-62
2022/08/09 09:06:39;;;;;;;4.20;1.70;;;34.80;38.00;;;;;;5053824;28;20205;-66
2022/08/09 09:09:06;;;;;;;1.70;1.60;;;35.00;37.90;;;;;;5053407;28;20173;-66
2022/08/09 09:11:34;;;;;;;2.88;1.60;;;35.20;37.80;;;;;;5052415;28;20191;-67
2022/08/09 09:14:27;;;;;;;2.22;1.40;;;35.40;37.80;;;;;;5053277;28;20185;-66
2022/08/09 09:16:54;;;;;;;3.38;1.38;;;35.20;36.90;;;;;;5052157;28;20200;-66
2022/08/09 09:19:19;;;;;;;1.48;1.40;;;35.40;37.20;;;;;;5053418;28;20188;-66
2022/08/09 09:22:07;;;;;;;2.28;1.40;;;35.30;36.80;;;;;;5053517;28;20181;-66
2022/08/09 09:24:38;;;;;;;5.95;1.50;;;35.10;37.70;;;;;;5052245;28;20235;-66
2022/08/09 09:27:06;;;;;;;1.52;1.42;;;35.10;37.60;;;;;;5053287;28;20228;-66
2022/08/09 09:29:31;;;;;;;1.50;1.30;;;35.10;37.00;;;;;;5052871;28;20214;-66
2022/08/09 09:31:57;;;;;;;1.50;1.40;;;35.10;38.10;;;;;;5053289;28;20577;-66
2022/08/09 09:34:23;;;;;;;1.50;1.40;;;35.00;37.80;;;;;;5052978;28;20181;-66
2022/08/09 09:36:49;;;;;;;2.80;1.50;;;35.10;37.90;;;;;;5053256;28;20177;-66
2022/08/09 09:39:17;;;;;;;2.88;1.52;;;34.90;36.70;;;;;;5052716;28;20207;-66
2022/08/09 09:41:43;;;;;;;2.03;1.48;;;34.90;36.70;;;;;;5053248;28;20230;-66
2022/08/09 09:44:09;;;;;;;2.17;1.67;;;34.90;37.00;;;;;;5052891;28;20648;-66
2022/08/09 09:46:40;;;;;;;2.45;1.60;;;35.00;36.90;;;;;;5052807;28;20220;-66
2022/08/09 09:49:10;;;;;;;2.58;1.60;;;35.20;37.20;;;;;;5051709;28;20196;-66
2022/08/09 09:51:37;;;;;;;1.80;1.50;;;35.20;36.70;;;;;;5051776;28;20702;-66
2022/08/09 09:54:03;;;;;;;3.50;1.55;;;35.20;35.50;;;;;;5052444;28;20184;-66
2022/08/09 09:56:34;;;;;;;3.72;1.38;;;35.10;35.60;;;;;;5051541;28;20230;-66
2022/08/09 09:59:00;;;;;;;1.80;1.50;;;34.90;35.80;;;;;;5052437;28;20177;-66
2022/08/09 10:01:26;;;;;;;2.40;1.50;;;35.00;36.30;;;;;;5052098;28;20180;-66
2022/08/09 10:03:53;;;;;;;1.33;1.20;;;35.10;36.20;;;;;;5052198;28;20222;-67
2022/08/09 10:06:19;;;;;;;1.67;1.40;;;35.10;36.50;;;;;;5052490;28;20358;-65
2022/08/09 10:08:47;;;;;;;3.85;1.40;;;35.30;35.70;;;;;;5052400;28;20695;-64
2022/08/09 10:11:32;;;;;;;3.67;1.50;;;35.30;36.20;;;;;;5032628;28;20263;-64
2022/08/09 10:13:58;;;;;;;1.50;1.40;;;35.30;35.40;;;;;;5048528;28;20176;-64
2022/08/09 10:16:35;;;;;;;1.33;1.33;;;35.30;35.20;;;;;;5052101;28;20503;-65
2022/08/09 10:19:06;;;;;;;2.03;1.30;;;35.40;35.60;;;;;;5032486;28;20259;-65
2022/08/09 10:21:33;;;;;;;2.10;1.50;;;35.50;35.70;;;;;;5032971;28;20677;-65
2022/08/09 10:24:03;;;;;;;1.58;1.30;;;35.50;34.80;;;;;;5052157;28;20271;-65
2022/08/09 10:26:30;;;;;;;1.52;1.40;;;35.30;34.50;;;;;;5051582;28;20208;-65
2022/08/09 10:28:56;;;;;;;2.60;1.50;;;34.90;34.60;;;;;;5052250;28;20207;-65
2022/08/09 10:31:22;;;;;;;1.50;1.30;;;34.70;34.80;;;;;;5051687;28;20181;-65
2022/08/09 10:33:49;;;;;;;2.40;1.35;;;34.60;35.00;;;;;;5051792;28;20671;-65
2022/08/09 10:36:15;;;;;;;3.35;1.38;;;34.50;34.80;;;;;;5051710;28;20197;-65
2022/08/09 10:38:43;;;;;;;1.45;1.20;;;34.30;34.50;;;;;;5050254;28;20715;-65
2022/08/09 10:41:10;;;;;;;2.75;1.40;;;34.30;34.70;;;;;;5051760;28;20187;-65
2022/08/09 10:43:36;;;;;;;1.95;1.60;;;34.30;35.10;;;;;;5051665;28;20181;-65
2022/08/09 10:46:52;;;;;;;1.60;1.50;;;34.30;34.80;;;;;;5051896;28;20746;-65
2022/08/09 10:49:33;;;;;;;1.10;1.05;;;34.00;34.80;;;;;;5050359;28;20193;-65
2022/08/09 10:52:15;;;;;;;6.30;1.30;;;33.90;35.70;;;;;;5051529;28;20180;-65
2022/08/09 10:54:41;;;;;;;1.73;1.40;;;33.70;35.00;;;;;;5051633;28;20189;-64
2022/08/09 10:57:13;;;;;;;1.77;1.50;;;33.20;35.50;;;;;;5051857;28;20648;-63
2022/08/09 10:59:40;;;;;;;1.30;1.20;;;33.00;36.40;;;;;;5051402;28;20235;-64
2022/08/09 11:02:07;;;;;;;2.15;1.30;;;33.20;36.00;;;;;;5050530;28;20276;-64
2022/08/09 11:04:34;;;;;;;1.65;1.50;;;33.20;36.30;;;;;;5050319;28;20660;-65
2022/08/09 11:07:00;;;;;;;2.30;1.60;;;33.20;36.90;;;;;;5051293;28;20223;-65
2022/08/09 11:09:37;;;;;;;1.55;1.45;;;33.50;36.80;;;;;;5050970;28;20527;-65
2022/08/09 11:12:18;;;;;;;2.35;1.27;;;33.70;36.70;;;;;;5051290;28;20573;-65
2022/08/09 11:14:50;;;;;;;1.33;1.20;;;33.80;35.70;;;;;;5051433;28;20203;-64
2022/08/09 11:17:15;;;;;;;1.30;1.30;;;33.60;35.70;;;;;;5051232;28;20186;-64
2022/08/09 11:20:06;;;;;;;2.33;1.30;;;33.50;36.00;;;;;;5051648;28;20273;-65
2022/08/09 11:22:41;;;;;;;3.08;1.40;;;33.20;36.50;;;;;;5051385;28;20180;-64
2022/08/09 11:25:15;;;;;;;2.47;1.35;;;33.20;37.00;;;;;;5051185;28;20221;-65
2022/08/09 11:27:46;;;;;;;3.60;1.40;;;33.30;36.80;;;;;;5051367;28;20667;-64
2022/08/09 11:30:14;;;;;;;1.70;1.40;;;33.40;36.70;;;;;;5050529;28;20219;-64
2022/08/09 11:32:49;;;;;;;1.85;1.58;;;33.50;36.50;;;;;;5052032;28;20185;-65
2022/08/09 11:35:18;;;;;;;2.17;1.40;;;33.60;36.30;;;;;;5051234;28;20192;-65
2022/08/09 11:37:46;;;;;;;3.97;1.50;;;33.70;36.20;;;;;;5050939;28;20669;-65
2022/08/09 11:40:14;;;;;;;3.33;1.40;;;33.80;35.90;;;;;;5050020;28;20250;-64
2022/08/09 11:42:46;;;;;;;1.65;1.50;;;33.60;36.30;;;;;;5051306;28;20178;-64
2022/08/09 11:45:22;;;;;;;2.25;1.40;;;33.50;37.10;;;;;;5051046;28;20192;-64
2022/08/09 11:47:54;;;;;;;2.05;1.42;;;33.70;36.00;;;;;;5051310;28;20211;-64
2022/08/09 11:50:20;;;;;;;4.07;1.52;;;33.70;36.00;;;;;;5050772;28;20207;-64
2022/08/09 11:52:58;;;;;;;9.43;2.75;;;33.60;35.50;;;;;;5051246;28;20633;-64
2022/08/09 11:55:36;;;;;;;1.27;1.20;;;33.30;35.70;;;;;;5049604;28;20177;-64
2022/08/09 11:58:26;;;;;;;1.95;1.55;;;33.00;35.70;;;;;;5050348;28;20166;-64
2022/08/09 12:01:02;;;;;;;1.60;1.50;;;32.90;36.10;;;;;;5063122;28;20663;-64
2022/08/09 12:03:28;;;;;;;2.25;1.20;;;32.90;36.40;;;;;;5052628;28;20215;-64
2022/08/09 12:05:56;;;;;;;2.80;1.30;;;32.90;36.00;;;;;;5041849;28;20182;-64
2022/08/09 12:08:23;;;;;;;1.40;1.30;;;33.00;36.00;;;;;;5052265;28;20182;-64
2022/08/09 12:10:54;;;;;;;4.68;1.52;;;33.00;36.00;;;;;;5051004;28;20184;-64
2022/08/09 12:13:32;;;;;;;3.65;1.50;;;32.80;36.30;;;;;;5052767;28;20633;-64
2022/08/09 12:16:02;;;;;;;3.75;1.40;;;32.60;36.50;;;;;;5053478;28;20663;-64
2022/08/09 12:18:28;;;;;;;2.15;1.50;;;32.70;36.80;;;;;;5054828;28;20170;-64
2022/08/09 12:20:54;;;;;;;4.15;1.55;;;32.90;36.50;;;;;;5054492;28;20173;-64
2022/08/09 12:23:20;;;;;;;1.70;1.25;;;33.10;36.10;;;;;;5054334;28;20287;-64
2022/08/09 12:25:52;;;;;;;4.53;1.25;;;33.00;34.80;;;;;;5054439;28;20525;-63
2022/08/09 12:28:19;;;;;;;1.52;1.23;;;32.80;35.30;;;;;;5053144;28;20181;-63
2022/08/09 12:30:46;;;;;;;1.85;1.10;;;32.70;35.20;;;;;;5053711;28;20540;-64
2022/08/09 12:33:11;;;;;;;1.63;1.30;;;32.70;35.10;;;;;;5053954;28;20650;-63
2022/08/09 12:35:38;;;;;;;1.45;1.35;;;32.70;34.70;;;;;;5054278;28;20260;-63
2022/08/09 12:38:24;;;;;;;1.17;1.13;;;32.90;35.40;;;;;;5054110;28;20640;-63
2022/08/09 12:40:50;;;;;;;1.25;1.17;;;32.90;34.10;;;;;;5053950;28;20189;-64
2022/08/09 12:43:21;;;;;;;1.63;1.10;;;32.80;34.50;;;;;;5054331;28;20173;-63
2022/08/09 12:45:47;;;;;;;1.50;1.40;;;32.80;34.70;;;;;;5054180;28;20181;-64
2022/08/09 12:48:14;;;;;;;1.60;1.20;;;32.80;34.70;;;;;;5053723;28;20189;-64
2022/08/09 12:50:40;;;;;;;1.92;1.00;;;32.90;34.40;;;;;;5053810;28;20260;-64
2022/08/09 12:53:30;;;;;;;1.40;1.20;;;33.00;34.10;;;;;;5053582;28;20712;-64